sensor_id;sensor_type;location;lat;lon;timestamp;pressure;altitude;pressure_sealevel;temperature;humidity
141;BME280;65;48.778;9.160;2023-08-06T00:00:24;97763.00;;;15.31;100.00
141;BME280;65;48.778;9.160;2023-08-06T00:03:10;97763.81;;;15.22;100.00
141;BME280;65;48.778;9.160;2023-08-06T00:05:56;97757.91;;;15.18;100.00
141;BME280;65;48.778;9.160;2023-08-06T00:08:41;97756.66;;;15.12;100.00
141;BME280;65;48.778;9.160;2023-08-06T00:11:27;97749.97;;;14.97;100.00
141;BME280;65;48.778;9.160;2023-08-06T00:14:13;97747.72;;;14.93;100.00
141;BME280;65;48.778;9.160;2023-08-06T00:17:01;97734.97;;;14.86;100.00
141;BME280;65;48.778;9.160;2023-08-06T00:19:46;97743.75;;;14.77;100.00
141;BME280;65;48.778;9.160;2023-08-06T00:22:33;97741.63;;;14.71;100.00
141;BME280;65;48.778;9.160;2023-08-06T00:25:19;97737.97;;;14.63;100.00
141;BME280;65;48.778;9.160;2023-08-06T00:28:05;97746.06;;;14.61;100.00
141;BME280;65;48.778;9.160;2023-08-06T00:30:54;97747.44;;;14.55;100.00
141;BME280;65;48.778;9.160;2023-08-06T00:33:40;97742.53;;;14.51;100.00
141;BME280;65;48.778;9.160;2023-08-06T00:36:26;97740.72;;;14.40;100.00
141;BME280;65;48.778;9.160;2023-08-06T00:39:12;97733.94;;;14.27;100.00
141;BME280;65;48.778;9.160;2023-08-06T00:41:58;97732.53;;;14.22;100.00
141;BME280;65;48.778;9.160;2023-08-06T00:44:43;97731.09;;;14.18;100.00
141;BME280;65;48.778;9.160;2023-08-06T00:47:29;97733.31;;;14.13;100.00
141;BME280;65;48.778;9.160;2023-08-06T00:50:15;97734.34;;;14.01;100.00
141;BME280;65;48.778;9.160;2023-08-06T00:53:01;97726.06;;;13.95;100.00
141;BME280;65;48.778;9.160;2023-08-06T00:55:48;97716.03;;;13.87;100.00
141;BME280;65;48.778;9.160;2023-08-06T00:58:35;97720.19;;;13.80;100.00
141;BME280;65;48.778;9.160;2023-08-06T01:01:21;97713.66;;;13.84;100.00
141;BME280;65;48.778;9.160;2023-08-06T01:04:07;97714.16;;;13.78;100.00
141;BME280;65;48.778;9.160;2023-08-06T01:13:18;97718.94;;;13.63;100.00
141;BME280;65;48.778;9.160;2023-08-06T01:16:09;97711.69;;;13.65;100.00
141;BME280;65;48.778;9.160;2023-08-06T01:18:58;97706.84;;;13.70;100.00
141;BME280;65;48.778;9.160;2023-08-06T01:21:43;97704.25;;;13.80;100.00
141;BME280;65;48.778;9.160;2023-08-06T01:24:29;97706.88;;;13.91;100.00
141;BME280;65;48.778;9.160;2023-08-06T01:30:17;97701.34;;;14.04;100.00
141;BME280;65;48.778;9.160;2023-08-06T01:33:07;97699.16;;;14.09;100.00
141;BME280;65;48.778;9.160;2023-08-06T01:35:55;97701.06;;;14.28;100.00
141;BME280;65;48.778;9.160;2023-08-06T01:38:41;97700.97;;;14.50;100.00
141;BME280;65;48.778;9.160;2023-08-06T01:41:27;97687.00;;;14.58;100.00
141;BME280;65;48.778;9.160;2023-08-06T01:44:13;97692.22;;;14.69;100.00
141;BME280;65;48.778;9.160;2023-08-06T01:46:59;97691.22;;;14.70;100.00
141;BME280;65;48.778;9.160;2023-08-06T01:49:45;97688.94;;;14.55;100.00
141;BME280;65;48.778;9.160;2023-08-06T01:52:30;97683.63;;;14.55;100.00
141;BME280;65;48.778;9.160;2023-08-06T01:55:16;97684.88;;;14.51;100.00
141;BME280;65;48.778;9.160;2023-08-06T01:58:03;97679.69;;;14.50;100.00
141;BME280;65;48.778;9.160;2023-08-06T02:00:49;97668.81;;;14.42;100.00
141;BME280;65;48.778;9.160;2023-08-06T02:03:35;97671.97;;;14.47;100.00
141;BME280;65;48.778;9.160;2023-08-06T02:06:21;97672.28;;;14.53;100.00
141;BME280;65;48.778;9.160;2023-08-06T02:09:06;97668.34;;;14.48;100.00
141;BME280;65;48.778;9.160;2023-08-06T02:11:52;97662.16;;;14.27;100.00
141;BME280;65;48.778;9.160;2023-08-06T02:14:38;97659.47;;;14.17;100.00
141;BME280;65;48.778;9.160;2023-08-06T02:17:23;97654.81;;;14.09;100.00
141;BME280;65;48.778;9.160;2023-08-06T02:20:09;97640.13;;;14.05;100.00
141;BME280;65;48.778;9.160;2023-08-06T02:22:55;97635.50;;;14.07;100.00
141;BME280;65;48.778;9.160;2023-08-06T02:25:41;97643.56;;;13.96;100.00
141;BME280;65;48.778;9.160;2023-08-06T02:28:27;97641.75;;;13.97;100.00
141;BME280;65;48.778;9.160;2023-08-06T02:31:13;97642.00;;;13.93;100.00
141;BME280;65;48.778;9.160;2023-08-06T02:33:59;97637.22;;;13.87;100.00
141;BME280;65;48.778;9.160;2023-08-06T02:36:45;97621.03;;;13.90;100.00
141;BME280;65;48.778;9.160;2023-08-06T02:39:30;97633.50;;;13.79;100.00
141;BME280;65;48.778;9.160;2023-08-06T02:42:16;97624.56;;;13.80;100.00
141;BME280;65;48.778;9.160;2023-08-06T02:45:02;97621.47;;;13.75;100.00
141;BME280;65;48.778;9.160;2023-08-06T02:47:48;97627.81;;;13.63;100.00
141;BME280;65;48.778;9.160;2023-08-06T02:50:41;97619.97;;;13.61;100.00
141;BME280;65;48.778;9.160;2023-08-06T02:53:27;97616.63;;;13.59;100.00
141;BME280;65;48.778;9.160;2023-08-06T02:56:13;97601.53;;;13.59;100.00
141;BME280;65;48.778;9.160;2023-08-06T02:58:58;97601.25;;;13.63;100.00
141;BME280;65;48.778;9.160;2023-08-06T03:01:45;97600.56;;;13.60;100.00
141;BME280;65;48.778;9.160;2023-08-06T03:04:31;97598.16;;;13.57;100.00
141;BME280;65;48.778;9.160;2023-08-06T03:07:17;97594.28;;;13.61;100.00
141;BME280;65;48.778;9.160;2023-08-06T03:10:03;97601.63;;;13.79;100.00
141;BME280;65;48.778;9.160;2023-08-06T03:12:49;97598.59;;;13.83;100.00
141;BME280;65;48.778;9.160;2023-08-06T03:15:34;97586.22;;;13.93;100.00
141;BME280;65;48.778;9.160;2023-08-06T03:18:22;97588.47;;;13.98;100.00
141;BME280;65;48.778;9.160;2023-08-06T03:21:08;97582.06;;;14.01;100.00
141;BME280;65;48.778;9.160;2023-08-06T03:23:53;97573.25;;;14.00;100.00
141;BME280;65;48.778;9.160;2023-08-06T03:26:39;97578.56;;;14.00;100.00
141;BME280;65;48.778;9.160;2023-08-06T03:29:25;97588.22;;;14.01;100.00
141;BME280;65;48.778;9.160;2023-08-06T03:32:10;97591.75;;;14.11;100.00
141;BME280;65;48.778;9.160;2023-08-06T03:34:56;97591.25;;;14.27;100.00
141;BME280;65;48.778;9.160;2023-08-06T03:37:42;97598.25;;;14.28;100.00
141;BME280;65;48.778;9.160;2023-08-06T03:40:27;97592.63;;;14.21;100.00
141;BME280;65;48.778;9.160;2023-08-06T03:43:13;97590.63;;;14.14;100.00
141;BME280;65;48.778;9.160;2023-08-06T03:45:59;97589.91;;;14.02;100.00
141;BME280;65;48.778;9.160;2023-08-06T03:48:45;97588.06;;;14.03;100.00
141;BME280;65;48.778;9.160;2023-08-06T03:51:31;97592.25;;;13.96;100.00
141;BME280;65;48.778;9.160;2023-08-06T03:54:16;97591.53;;;13.93;100.00
141;BME280;65;48.778;9.160;2023-08-06T03:57:02;97584.66;;;13.91;100.00
141;BME280;65;48.778;9.160;2023-08-06T03:59:48;97593.47;;;13.91;100.00
141;BME280;65;48.778;9.160;2023-08-06T04:02:34;97589.28;;;13.89;100.00
141;BME280;65;48.778;9.160;2023-08-06T04:05:20;97593.81;;;13.77;100.00
141;BME280;65;48.778;9.160;2023-08-06T04:08:05;97578.66;;;13.68;100.00
141;BME280;65;48.778;9.160;2023-08-06T04:10:52;97580.88;;;13.63;100.00
141;BME280;65;48.778;9.160;2023-08-06T04:13:38;97588.13;;;13.61;100.00
141;BME280;65;48.778;9.160;2023-08-06T04:16:24;97603.22;;;13.60;100.00
141;BME280;65;48.778;9.160;2023-08-06T04:19:11;97606.84;;;13.59;100.00
141;BME280;65;48.778;9.160;2023-08-06T04:21:57;97614.81;;;13.59;100.00
141;BME280;65;48.778;9.160;2023-08-06T04:24:43;97615.66;;;13.60;100.00
141;BME280;65;48.778;9.160;2023-08-06T04:27:29;97613.81;;;13.60;100.00
141;BME280;65;48.778;9.160;2023-08-06T04:30:14;97617.78;;;13.66;100.00
141;BME280;65;48.778;9.160;2023-08-06T04:33:00;97610.78;;;13.65;100.00
141;BME280;65;48.778;9.160;2023-08-06T04:35:46;97609.22;;;13.63;100.00
141;BME280;65;48.778;9.160;2023-08-06T04:38:32;97611.75;;;13.64;100.00
141;BME280;65;48.778;9.160;2023-08-06T04:41:17;97607.28;;;13.65;100.00
141;BME280;65;48.778;9.160;2023-08-06T04:44:03;97616.69;;;13.69;100.00
141;BME280;65;48.778;9.160;2023-08-06T04:46:49;97613.94;;;13.80;100.00
141;BME280;65;48.778;9.160;2023-08-06T04:49:35;97607.25;;;13.85;100.00
141;BME280;65;48.778;9.160;2023-08-06T04:52:21;97615.31;;;13.95;100.00
141;BME280;65;48.778;9.160;2023-08-06T04:55:07;97620.09;;;14.01;100.00
141;BME280;65;48.778;9.160;2023-08-06T04:57:53;97614.66;;;14.03;100.00
141;BME280;65;48.778;9.160;2023-08-06T05:00:39;97622.75;;;14.01;100.00
141;BME280;65;48.778;9.160;2023-08-06T05:03:24;97623.59;;;14.02;100.00
141;BME280;65;48.778;9.160;2023-08-06T05:06:10;97620.00;;;14.12;100.00
141;BME280;65;48.778;9.160;2023-08-06T05:08:56;97620.34;;;14.29;100.00
141;BME280;65;48.778;9.160;2023-08-06T05:11:42;97615.19;;;14.37;100.00
141;BME280;65;48.778;9.160;2023-08-06T05:14:27;97607.03;;;14.49;100.00
141;BME280;65;48.778;9.160;2023-08-06T05:17:13;97612.09;;;14.52;100.00
141;BME280;65;48.778;9.160;2023-08-06T05:19:59;97604.81;;;14.54;100.00
141;BME280;65;48.778;9.160;2023-08-06T05:22:45;97612.50;;;14.48;100.00
141;BME280;65;48.778;9.160;2023-08-06T05:25:31;97604.41;;;14.59;100.00
141;BME280;65;48.778;9.160;2023-08-06T05:28:17;97615.66;;;14.82;100.00
141;BME280;65;48.778;9.160;2023-08-06T05:31:04;97623.97;;;15.08;100.00
141;BME280;65;48.778;9.160;2023-08-06T05:33:50;97614.88;;;15.30;100.00
141;BME280;65;48.778;9.160;2023-08-06T05:36:36;97623.69;;;15.49;100.00
141;BME280;65;48.778;9.160;2023-08-06T05:39:21;97627.78;;;15.73;100.00
141;BME280;65;48.778;9.160;2023-08-06T05:42:07;97630.66;;;15.99;100.00
141;BME280;65;48.778;9.160;2023-08-06T05:44:53;97628.50;;;16.12;100.00
141;BME280;65;48.778;9.160;2023-08-06T05:47:39;97626.69;;;16.12;100.00
141;BME280;65;48.778;9.160;2023-08-06T05:50:24;97635.84;;;16.00;100.00
141;BME280;65;48.778;9.160;2023-08-06T05:53:10;97630.69;;;15.89;100.00
141;BME280;65;48.778;9.160;2023-08-06T05:55:56;97633.38;;;15.79;100.00
141;BME280;65;48.778;9.160;2023-08-06T05:58:42;97627.63;;;15.74;100.00
141;BME280;65;48.778;9.160;2023-08-06T06:01:27;97641.91;;;15.83;100.00
141;BME280;65;48.778;9.160;2023-08-06T06:04:13;97635.34;;;15.68;100.00
141;BME280;65;48.778;9.160;2023-08-06T06:06:59;97655.13;;;15.65;100.00
141;BME280;65;48.778;9.160;2023-08-06T06:09:45;97643.31;;;15.58;100.00
141;BME280;65;48.778;9.160;2023-08-06T06:12:30;97655.63;;;15.49;100.00
141;BME280;65;48.778;9.160;2023-08-06T06:15:16;97648.22;;;15.34;100.00
141;BME280;65;48.778;9.160;2023-08-06T06:18:02;97647.53;;;15.32;100.00
141;BME280;65;48.778;9.160;2023-08-06T06:20:48;97641.34;;;15.31;100.00
141;BME280;65;48.778;9.160;2023-08-06T06:23:33;97650.59;;;15.37;100.00
141;BME280;65;48.778;9.160;2023-08-06T06:26:19;97651.44;;;15.37;100.00
141;BME280;65;48.778;9.160;2023-08-06T06:29:05;97660.13;;;15.39;100.00
141;BME280;65;48.778;9.160;2023-08-06T06:31:51;97662.78;;;15.39;100.00
141;BME280;65;48.778;9.160;2023-08-06T06:34:36;97665.59;;;15.38;100.00
141;BME280;65;48.778;9.160;2023-08-06T06:37:22;97666.44;;;15.48;100.00
141;BME280;65;48.778;9.160;2023-08-06T06:40:08;97668.69;;;15.43;100.00
141;BME280;65;48.778;9.160;2023-08-06T06:42:54;97664.53;;;15.69;100.00
141;BME280;65;48.778;9.160;2023-08-06T06:45:40;97670.47;;;16.10;100.00
141;BME280;65;48.778;9.160;2023-08-06T06:48:27;97663.25;;;16.39;100.00
141;BME280;65;48.778;9.160;2023-08-06T06:51:13;97663.59;;;16.54;100.00
141;BME280;65;48.778;9.160;2023-08-06T06:53:59;97660.69;;;16.85;98.22
141;BME280;65;48.778;9.160;2023-08-06T06:56:45;97659.16;;;16.82;99.68
141;BME280;65;48.778;9.160;2023-08-06T06:59:31;97665.63;;;16.42;100.00
141;BME280;65;48.778;9.160;2023-08-06T07:02:16;97677.06;;;16.25;100.00
141;BME280;65;48.778;9.160;2023-08-06T07:05:02;97666.59;;;15.85;100.00
141;BME280;65;48.778;9.160;2023-08-06T07:07:48;97675.00;;;15.90;100.00
141;BME280;65;48.778;9.160;2023-08-06T07:10:34;97666.34;;;15.69;100.00
141;BME280;65;48.778;9.160;2023-08-06T07:13:20;97673.31;;;15.50;100.00
141;BME280;65;48.778;9.160;2023-08-06T07:16:05;97680.88;;;15.45;100.00
141;BME280;65;48.778;9.160;2023-08-06T07:18:52;97679.59;;;15.30;100.00
141;BME280;65;48.778;9.160;2023-08-06T07:21:38;97678.91;;;15.18;100.00
141;BME280;65;48.778;9.160;2023-08-06T07:24:24;97676.94;;;15.21;100.00
141;BME280;65;48.778;9.160;2023-08-06T07:27:10;97679.53;;;15.01;100.00
141;BME280;65;48.778;9.160;2023-08-06T07:29:55;97689.44;;;14.80;100.00
141;BME280;65;48.778;9.160;2023-08-06T07:32:41;97687.72;;;14.69;100.00
141;BME280;65;48.778;9.160;2023-08-06T07:35:28;97687.16;;;14.66;100.00
141;BME280;65;48.778;9.160;2023-08-06T07:38:14;97691.53;;;14.76;100.00
141;BME280;65;48.778;9.160;2023-08-06T07:41:02;97681.72;;;14.77;100.00
141;BME280;65;48.778;9.160;2023-08-06T07:43:48;97686.53;;;14.93;100.00
141;BME280;65;48.778;9.160;2023-08-06T07:46:34;97692.00;;;14.91;100.00
141;BME280;65;48.778;9.160;2023-08-06T07:49:19;97693.47;;;15.14;100.00
141;BME280;65;48.778;9.160;2023-08-06T07:52:05;97685.34;;;15.26;100.00
141;BME280;65;48.778;9.160;2023-08-06T07:54:51;97692.66;;;15.43;100.00
141;BME280;65;48.778;9.160;2023-08-06T07:57:37;97682.84;;;15.53;100.00
141;BME280;65;48.778;9.160;2023-08-06T08:00:23;97686.25;;;15.74;100.00
141;BME280;65;48.778;9.160;2023-08-06T08:03:09;97681.72;;;15.94;100.00
141;BME280;65;48.778;9.160;2023-08-06T08:05:55;97683.06;;;16.18;100.00
141;BME280;65;48.778;9.160;2023-08-06T08:08:44;97681.41;;;16.17;100.00
141;BME280;65;48.778;9.160;2023-08-06T08:11:30;97685.63;;;16.19;100.00
141;BME280;65;48.778;9.160;2023-08-06T08:14:15;97684.97;;;16.44;100.00
141;BME280;65;48.778;9.160;2023-08-06T08:17:02;97684.13;;;16.91;100.00
141;BME280;65;48.778;9.160;2023-08-06T08:19:48;97680.84;;;17.42;99.40
141;BME280;65;48.778;9.160;2023-08-06T08:22:34;97678.47;;;17.57;100.00
141;BME280;65;48.778;9.160;2023-08-06T08:25:20;97679.34;;;18.19;93.38
141;BME280;65;48.778;9.160;2023-08-06T08:28:06;97672.47;;;18.68;92.50
141;BME280;65;48.778;9.160;2023-08-06T08:30:52;97672.34;;;19.20;86.71
141;BME280;65;48.778;9.160;2023-08-06T08:33:38;97671.97;;;19.81;81.62
141;BME280;65;48.778;9.160;2023-08-06T08:36:24;97669.56;;;18.95;86.82
141;BME280;65;48.778;9.160;2023-08-06T08:39:09;97677.19;;;18.74;87.99
141;BME280;65;48.778;9.160;2023-08-06T08:41:55;97680.03;;;18.21;90.66
141;BME280;65;48.778;9.160;2023-08-06T08:44:42;97677.56;;;18.01;94.24
141;BME280;65;48.778;9.160;2023-08-06T08:47:28;97673.59;;;18.06;92.00
141;BME280;65;48.778;9.160;2023-08-06T08:50:15;97684.59;;;17.85;93.70
141;BME280;65;48.778;9.160;2023-08-06T08:53:02;97686.50;;;17.57;92.22
141;BME280;65;48.778;9.160;2023-08-06T08:55:49;97680.13;;;17.22;94.68
141;BME280;65;48.778;9.160;2023-08-06T08:58:35;97682.63;;;17.06;95.51
141;BME280;65;48.778;9.160;2023-08-06T09:01:24;97675.53;;;17.95;98.63
141;BME280;65;48.778;9.160;2023-08-06T09:04:10;97683.75;;;17.49;100.00
141;BME280;65;48.778;9.160;2023-08-06T09:06:58;97678.66;;;17.10;100.00
141;BME280;65;48.778;9.160;2023-08-06T09:09:47;97675.03;;;16.84;100.00
141;BME280;65;48.778;9.160;2023-08-06T09:12:34;97675.22;;;17.00;100.00
141;BME280;65;48.778;9.160;2023-08-06T09:15:20;97684.06;;;17.46;99.64
141;BME280;65;48.778;9.160;2023-08-06T09:18:10;97677.50;;;17.93;99.01
141;BME280;65;48.778;9.160;2023-08-06T09:20:57;97684.91;;;17.99;94.63
141;BME280;65;48.778;9.160;2023-08-06T09:23:43;97685.44;;;18.29;93.08
141;BME280;65;48.778;9.160;2023-08-06T09:26:33;97682.94;;;19.38;92.20
141;BME280;65;48.778;9.160;2023-08-06T09:29:19;97681.69;;;19.99;79.29
141;BME280;65;48.778;9.160;2023-08-06T09:32:05;97685.56;;;19.88;80.04
141;BME280;65;48.778;9.160;2023-08-06T09:34:55;97699.09;;;19.62;81.13
141;BME280;65;48.778;9.160;2023-08-06T09:37:42;97701.47;;;19.15;86.71
141;BME280;65;48.778;9.160;2023-08-06T09:40:29;97695.50;;;18.61;91.19
141;BME280;65;48.778;9.160;2023-08-06T09:43:19;97698.28;;;17.99;91.93
141;BME280;65;48.778;9.160;2023-08-06T09:46:13;97701.19;;;17.70;100.00
141;BME280;65;48.778;9.160;2023-08-06T09:48:59;97697.97;;;17.85;96.94
141;BME280;65;48.778;9.160;2023-08-06T09:51:46;97699.06;;;18.18;92.02
141;BME280;65;48.778;9.160;2023-08-06T09:54:37;97703.47;;;18.27;91.09
141;BME280;65;48.778;9.160;2023-08-06T09:57:24;97686.06;;;17.97;93.50
141;BME280;65;48.778;9.160;2023-08-06T10:00:11;97700.25;;;17.80;95.65
141;BME280;65;48.778;9.160;2023-08-06T10:03:00;97701.72;;;17.74;98.64
141;BME280;65;48.778;9.160;2023-08-06T10:05:46;97696.56;;;17.45;99.85
141;BME280;65;48.778;9.160;2023-08-06T10:08:32;97715.69;;;17.23;100.00
141;BME280;65;48.778;9.160;2023-08-06T10:11:20;97712.16;;;16.77;100.00
141;BME280;65;48.778;9.160;2023-08-06T10:14:11;97718.19;;;16.60;100.00
141;BME280;65;48.778;9.160;2023-08-06T10:16:58;97720.03;;;16.59;100.00
141;BME280;65;48.778;9.160;2023-08-06T10:19:46;97717.06;;;16.62;100.00
141;BME280;65;48.778;9.160;2023-08-06T10:22:33;97730.44;;;16.53;100.00
141;BME280;65;48.778;9.160;2023-08-06T10:25:19;97734.16;;;16.32;100.00
141;BME280;65;48.778;9.160;2023-08-06T10:28:09;97733.78;;;15.98;100.00
141;BME280;65;48.778;9.160;2023-08-06T10:30:55;97741.78;;;15.79;100.00
141;BME280;65;48.778;9.160;2023-08-06T10:33:47;97723.41;;;15.76;100.00
141;BME280;65;48.778;9.160;2023-08-06T10:36:33;97728.88;;;15.94;100.00
141;BME280;65;48.778;9.160;2023-08-06T10:39:19;97733.47;;;16.01;100.00
141;BME280;65;48.778;9.160;2023-08-06T10:42:05;97736.22;;;16.48;100.00
141;BME280;65;48.778;9.160;2023-08-06T10:45:13;97723.75;;;17.13;100.00
141;BME280;65;48.778;9.160;2023-08-06T10:48:00;97723.63;;;16.87;100.00
141;BME280;65;48.778;9.160;2023-08-06T10:50:46;97728.56;;;16.82;100.00
141;BME280;65;48.778;9.160;2023-08-06T10:53:32;97733.00;;;16.44;100.00
141;BME280;65;48.778;9.160;2023-08-06T10:56:19;97744.88;;;16.69;100.00
141;BME280;65;48.778;9.160;2023-08-06T10:59:06;97739.38;;;16.81;100.00
141;BME280;65;48.778;9.160;2023-08-06T11:01:52;97747.69;;;17.05;100.00
141;BME280;65;48.778;9.160;2023-08-06T11:04:38;97758.66;;;17.29;100.00
141;BME280;65;48.778;9.160;2023-08-06T11:07:24;97749.78;;;16.64;100.00
141;BME280;65;48.778;9.160;2023-08-06T11:10:24;97769.34;;;16.45;100.00
141;BME280;65;48.778;9.160;2023-08-06T11:13:10;97760.19;;;16.58;100.00
141;BME280;65;48.778;9.160;2023-08-06T11:15:56;97766.91;;;16.71;100.00
141;BME280;65;48.778;9.160;2023-08-06T11:18:43;97768.94;;;16.40;100.00
141;BME280;65;48.778;9.160;2023-08-06T11:21:30;97771.50;;;16.32;100.00
141;BME280;65;48.778;9.160;2023-08-06T11:24:16;97791.97;;;16.12;100.00
141;BME280;65;48.778;9.160;2023-08-06T11:27:11;97783.69;;;16.16;100.00
141;BME280;65;48.778;9.160;2023-08-06T11:29:57;97784.47;;;16.84;100.00
141;BME280;65;48.778;9.160;2023-08-06T11:32:47;97779.22;;;17.92;94.87
141;BME280;65;48.778;9.160;2023-08-06T11:35:37;97789.41;;;17.88;91.27
141;BME280;65;48.778;9.160;2023-08-06T11:38:29;97792.81;;;17.35;94.60
141;BME280;65;48.778;9.160;2023-08-06T11:41:15;97804.50;;;16.97;95.47
141;BME280;65;48.778;9.160;2023-08-06T11:44:02;97813.47;;;17.06;94.85
141;BME280;65;48.778;9.160;2023-08-06T11:46:52;97810.97;;;16.95;94.75
141;BME280;65;48.778;9.160;2023-08-06T11:49:48;97808.47;;;16.64;96.60
141;BME280;65;48.778;9.160;2023-08-06T11:52:38;97805.56;;;16.48;97.04
141;BME280;65;48.778;9.160;2023-08-06T11:55:25;97827.19;;;16.16;97.83
141;BME280;65;48.778;9.160;2023-08-06T11:58:11;97818.94;;;16.29;99.93
141;BME280;65;48.778;9.160;2023-08-06T12:00:57;97824.25;;;16.00;100.00
141;BME280;65;48.778;9.160;2023-08-06T12:03:43;97826.34;;;15.77;100.00
141;BME280;65;48.778;9.160;2023-08-06T12:06:29;97837.88;;;15.47;100.00
141;BME280;65;48.778;9.160;2023-08-06T12:09:15;97848.63;;;15.36;100.00
141;BME280;65;48.778;9.160;2023-08-06T12:12:01;97838.66;;;15.28;100.00
141;BME280;65;48.778;9.160;2023-08-06T12:14:47;97846.53;;;15.39;100.00
141;BME280;65;48.778;9.160;2023-08-06T12:17:33;97858.50;;;15.55;100.00
141;BME280;65;48.778;9.160;2023-08-06T12:20:19;97845.44;;;15.51;100.00
141;BME280;65;48.778;9.160;2023-08-06T12:23:05;97849.63;;;15.85;100.00
141;BME280;65;48.778;9.160;2023-08-06T12:25:51;97852.47;;;16.02;97.90
141;BME280;65;48.778;9.160;2023-08-06T12:28:40;97860.03;;;16.07;97.23
141;BME280;65;48.778;9.160;2023-08-06T12:31:26;97856.00;;;16.32;94.61
141;BME280;65;48.778;9.160;2023-08-06T12:34:11;97852.63;;;16.78;94.02
141;BME280;65;48.778;9.160;2023-08-06T12:36:58;97855.75;;;17.48;88.71
141;BME280;65;48.778;9.160;2023-08-06T12:39:43;97852.16;;;17.94;83.05
141;BME280;65;48.778;9.160;2023-08-06T12:42:29;97857.97;;;17.80;84.59
141;BME280;65;48.778;9.160;2023-08-06T12:45:15;97854.75;;;18.21;81.84
141;BME280;65;48.778;9.160;2023-08-06T12:48:01;97846.75;;;18.83;76.33
141;BME280;65;48.778;9.160;2023-08-06T12:50:47;97853.78;;;19.36;71.59
141;BME280;65;48.778;9.160;2023-08-06T12:53:34;97856.38;;;19.87;71.46
141;BME280;65;48.778;9.160;2023-08-06T12:56:21;97864.03;;;19.74;72.30
141;BME280;65;48.778;9.160;2023-08-06T12:59:07;97883.69;;;19.23;73.78
141;BME280;65;48.778;9.160;2023-08-06T13:01:52;97878.41;;;18.61;76.41
141;BME280;65;48.778;9.160;2023-08-06T13:04:38;97879.91;;;18.82;75.88
141;BME280;65;48.778;9.160;2023-08-06T13:07:25;97874.09;;;18.33;75.47
141;BME280;65;48.778;9.160;2023-08-06T13:10:11;97875.78;;;18.34;75.46
141;BME280;65;48.778;9.160;2023-08-06T13:12:56;97878.81;;;18.21;76.73
141;BME280;65;48.778;9.160;2023-08-06T13:15:42;97867.28;;;18.39;77.44
141;BME280;65;48.778;9.160;2023-08-06T13:18:28;97875.31;;;18.56;74.19
141;BME280;65;48.778;9.160;2023-08-06T13:21:14;97879.22;;;18.80;76.06
141;BME280;65;48.778;9.160;2023-08-06T13:24:03;97893.22;;;18.56;71.21
141;BME280;65;48.778;9.160;2023-08-06T13:26:49;97881.66;;;18.20;71.98
141;BME280;65;48.778;9.160;2023-08-06T13:29:35;97887.94;;;18.82;73.07
141;BME280;65;48.778;9.160;2023-08-06T13:32:21;97889.09;;;19.05;68.00
141;BME280;65;48.778;9.160;2023-08-06T13:35:07;97903.06;;;18.91;70.00
141;BME280;65;48.778;9.160;2023-08-06T13:37:52;97900.31;;;18.47;71.08
141;BME280;65;48.778;9.160;2023-08-06T13:40:39;97893.78;;;17.96;74.18
141;BME280;65;48.778;9.160;2023-08-06T13:43:25;97895.16;;;18.00;74.78
141;BME280;65;48.778;9.160;2023-08-06T13:46:12;97907.56;;;17.92;74.17
141;BME280;65;48.778;9.160;2023-08-06T13:49:01;97906.31;;;17.59;74.71
141;BME280;65;48.778;9.160;2023-08-06T13:51:47;97909.22;;;17.28;74.99
141;BME280;65;48.778;9.160;2023-08-06T13:54:33;97922.00;;;17.44;75.56
141;BME280;65;48.778;9.160;2023-08-06T13:57:19;97910.47;;;17.44;75.82
141;BME280;65;48.778;9.160;2023-08-06T14:00:05;97927.63;;;17.78;75.20
141;BME280;65;48.778;9.160;2023-08-06T14:02:51;97909.69;;;17.61;74.14
141;BME280;65;48.778;9.160;2023-08-06T14:05:37;97923.53;;;17.47;75.94
141;BME280;65;48.778;9.160;2023-08-06T14:08:25;97918.22;;;17.27;77.09
141;BME280;65;48.778;9.160;2023-08-06T14:11:11;97939.53;;;17.56;76.99
141;BME280;65;48.778;9.160;2023-08-06T14:13:57;97941.81;;;17.51;76.82
141;BME280;65;48.778;9.160;2023-08-06T14:16:43;97924.88;;;17.60;77.19
141;BME280;65;48.778;9.160;2023-08-06T14:19:28;97925.03;;;17.96;72.63
141;BME280;65;48.778;9.160;2023-08-06T14:22:15;97939.72;;;17.82;71.12
141;BME280;65;48.778;9.160;2023-08-06T14:25:01;97926.81;;;18.05;75.02
141;BME280;65;48.778;9.160;2023-08-06T14:27:46;97925.28;;;18.02;71.66
141;BME280;65;48.778;9.160;2023-08-06T14:30:33;97921.75;;;18.02;71.37
141;BME280;65;48.778;9.160;2023-08-06T14:33:19;97936.06;;;18.11;72.34
141;BME280;65;48.778;9.160;2023-08-06T14:36:04;97940.91;;;18.25;70.20
141;BME280;65;48.778;9.160;2023-08-06T14:38:51;97944.22;;;17.82;71.01
141;BME280;65;48.778;9.160;2023-08-06T14:41:36;97958.31;;;17.37;74.42
141;BME280;65;48.778;9.160;2023-08-06T14:44:22;97974.22;;;17.19;79.05
141;BME280;65;48.778;9.160;2023-08-06T14:47:08;97987.81;;;16.58;85.02
141;BME280;65;48.778;9.160;2023-08-06T14:49:53;98003.41;;;16.53;91.70
141;BME280;65;48.778;9.160;2023-08-06T14:52:39;98002.03;;;16.68;89.64
141;BME280;65;48.778;9.160;2023-08-06T14:55:26;98009.88;;;16.60;91.97
141;BME280;65;48.778;9.160;2023-08-06T14:58:12;98015.75;;;16.44;98.46
141;BME280;65;48.778;9.160;2023-08-06T15:00:57;98013.78;;;15.97;99.40
141;BME280;65;48.778;9.160;2023-08-06T15:03:45;98020.78;;;15.88;100.00
141;BME280;65;48.778;9.160;2023-08-06T15:06:31;98018.22;;;15.77;100.00
141;BME280;65;48.778;9.160;2023-08-06T15:09:17;98021.13;;;15.74;100.00
141;BME280;65;48.778;9.160;2023-08-06T15:12:03;98005.94;;;15.95;100.00
141;BME280;65;48.778;9.160;2023-08-06T15:14:49;98010.44;;;16.44;100.00
141;BME280;65;48.778;9.160;2023-08-06T15:17:35;98008.16;;;16.40;96.87
141;BME280;65;48.778;9.160;2023-08-06T15:20:22;98016.69;;;16.84;95.63
141;BME280;65;48.778;9.160;2023-08-06T15:23:08;98015.97;;;17.20;92.66
141;BME280;65;48.778;9.160;2023-08-06T15:25:54;98001.19;;;17.16;92.12
141;BME280;65;48.778;9.160;2023-08-06T15:28:41;98018.28;;;17.62;87.75
141;BME280;65;48.778;9.160;2023-08-06T15:31:36;98013.44;;;17.94;82.79
141;BME280;65;48.778;9.160;2023-08-06T15:34:22;98010.94;;;17.74;79.79
141;BME280;65;48.778;9.160;2023-08-06T15:37:08;98017.88;;;18.04;79.17
141;BME280;65;48.778;9.160;2023-08-06T15:39:54;98013.28;;;17.96;80.88
141;BME280;65;48.778;9.160;2023-08-06T15:42:40;98020.91;;;17.81;80.08
141;BME280;65;48.778;9.160;2023-08-06T15:45:25;98012.19;;;17.79;81.77